Hoene Spring, Missouri
Current Conditions -  °F | °C
As of 6:54 AM on Friday 28 Nov 2014 (Local Time) from KSUS Reporting Station
Clear Clear  
Wind Chill: -3°   Ceiling: Unl
Heat Index: -3°   Visibility: 8mi
Dew Point: -5°   Wind: 3mph
Humidity: 85%   Direction: 120°ESE
Pressure: 30.22"   Gusts: NA
Location:  38.5081°N, 90.6523°W
Report Text: KSUS 281254Z 12003KT 8SM CLR M03/M05 A3022 RMK AO2 SLP244 T10281050
Loading
Personal Weather Stations






























Interactive Weather Map New forecast layout! Learn more

10-Day Weather Forecast

Advertisements
Track Severe Weather on mobile